Time;durP1;ratioP1;P1;durP2;ratioP2;P2;SDS_P1;SDS_P2;PMS_P1;PMS_P2;Temp;Humidity;BMP_temperature;BMP_pressure;BME280_temperature;BME280_humidity;BME280_pressure;Samples;Min_cycle;Max_cycle;Signal;HPM_P1;HPM_P2
2023/05/10 00:01:26;;;;;;;0.20;0.20;;;;;;;14.46;100.00;94853.34;4349215;32;20209;-59
2023/05/10 00:03:51;;;;;;;0.13;0.13;;;;;;;14.26;100.00;94848.81;4341356;32;20201;-58
2023/05/10 00:06:17;;;;;;;0.40;0.40;;;;;;;14.36;100.00;94845.72;4349199;32;20181;-58
2023/05/10 00:08:42;;;;;;;0.20;0.20;;;;;;;14.42;100.00;94847.09;4322948;32;20194;-58
2023/05/10 00:11:07;;;;;;;0.10;0.10;;;;;;;14.29;100.00;94843.59;4341509;32;20261;-58
2023/05/10 00:13:33;;;;;;;0.30;0.30;;;;;;;14.39;100.00;94853.84;4345263;32;20215;-59
2023/05/10 00:15:58;;;;;;;0.23;0.23;;;;;;;14.39;100.00;94853.06;4339927;32;20197;-62
2023/05/10 00:18:24;;;;;;;0.13;0.13;;;;;;;14.46;100.00;94855.25;4359879;32;20196;-58
2023/05/10 00:20:49;;;;;;;0.07;0.07;;;;;;;14.42;100.00;94853.22;4349165;32;20189;-59
2023/05/10 00:23:15;;;;;;;0.00;0.00;;;;;;;14.28;100.00;94847.38;4342029;32;20212;-57
2023/05/10 00:25:40;;;;;;;0.30;0.30;;;;;;;14.23;100.00;94844.91;4362820;32;20176;-58
2023/05/10 00:28:05;;;;;;;0.10;0.10;;;;;;;14.32;100.00;94837.59;4363591;32;20236;-58
2023/05/10 00:30:31;;;;;;;0.00;0.00;;;;;;;14.20;100.00;94837.53;4333077;32;20194;-58
2023/05/10 00:32:56;;;;;;;0.10;0.10;;;;;;;14.25;100.00;94836.56;4352602;32;20209;-58
2023/05/10 00:35:22;;;;;;;0.57;0.20;;;;;;;14.34;100.00;94842.63;4357846;32;20246;-59
2023/05/10 00:37:47;;;;;;;0.00;0.00;;;;;;;14.37;100.00;94840.06;4340905;32;20200;-58
2023/05/10 00:40:14;;;;;;;0.10;0.10;;;;;;;14.34;100.00;94835.38;4362464;32;20248;-58
2023/05/10 00:42:40;;;;;;;0.60;0.43;;;;;;;14.20;100.00;94832.22;4344651;32;20302;-58
2023/05/10 00:45:06;;;;;;;0.00;0.00;;;;;;;14.18;100.00;94837.09;4341526;32;20201;-59
2023/05/10 00:47:32;;;;;;;0.27;0.27;;;;;;;14.23;100.00;94831.56;4357886;32;20235;-59
2023/05/10 00:49:57;;;;;;;0.00;0.00;;;;;;;14.13;100.00;94826.66;4342429;32;20206;-58
2023/05/10 00:52:23;;;;;;;0.77;0.37;;;;;;;14.23;100.00;94833.44;4355588;32;20209;-59
2023/05/10 00:54:51;;;;;;;0.00;0.00;;;;;;;14.12;100.00;94824.31;4353741;32;20311;-59
2023/05/10 00:57:17;;;;;;;0.00;0.00;;;;;;;14.08;100.00;94830.28;4345588;32;20197;-59
2023/05/10 00:59:42;;;;;;;0.00;0.00;;;;;;;14.16;100.00;94823.28;4337277;32;20220;-59
2023/05/10 01:02:07;;;;;;;0.20;0.20;;;;;;;14.00;100.00;94822.34;4360468;32;20236;-59
2023/05/10 01:04:33;;;;;;;0.00;0.00;;;;;;;14.15;100.00;94826.28;4346295;32;20283;-59
2023/05/10 01:06:59;;;;;;;0.03;0.03;;;;;;;14.14;100.00;94819.41;4352877;32;20220;-59
2023/05/10 01:09:26;;;;;;;0.30;0.30;;;;;;;14.16;100.00;94823.28;4358814;32;20209;-59
2023/05/10 01:11:51;;;;;;;0.00;0.00;;;;;;;14.04;100.00;94828.59;4348304;32;20235;-59
2023/05/10 01:14:19;;;;;;;0.00;0.00;;;;;;;14.03;100.00;94827.03;4355197;32;20193;-59
2023/05/10 01:16:47;;;;;;;0.30;0.30;;;;;;;14.03;100.00;94824.38;4351095;32;20267;-59
2023/05/10 01:19:21;;;;;;;0.00;0.00;;;;;;;14.10;100.00;94827.28;4333077;32;20308;-59
2023/05/10 01:21:53;;;;;;;0.10;0.10;;;;;;;13.98;100.00;94828.00;4343838;32;20192;-59
2023/05/10 01:24:44;;;;;;;0.10;0.10;;;;;;;13.99;100.00;94823.44;4361227;32;20267;-59
2023/05/10 01:27:34;;;;;;;0.00;0.00;;;;;;;13.97;100.00;94820.31;4342208;32;20287;-59
2023/05/10 01:30:33;;;;;;;0.00;0.00;;;;;;;14.01;100.00;94818.56;4342981;32;20268;-59
2023/05/10 01:33:22;;;;;;;0.20;0.20;;;;;;;14.13;100.00;94815.97;4356151;32;20235;-61
2023/05/10 01:35:57;;;;;;;0.00;0.00;;;;;;;14.13;100.00;94818.63;4340796;32;20189;-59
2023/05/10 01:38:46;;;;;;;0.00;0.00;;;;;;;14.06;100.00;94819.16;4349578;32;20204;-59
2023/05/10 01:41:17;;;;;;;0.00;0.00;;;;;;;14.08;100.00;94821.50;4325344;32;20227;-59
2023/05/10 01:44:06;;;;;;;0.10;0.10;;;;;;;14.01;100.00;94818.56;4332797;32;20193;-59
2023/05/10 01:46:36;;;;;;;0.20;0.20;;;;;;;14.10;100.00;94829.97;4352001;32;20193;-59
2023/05/10 01:49:07;;;;;;;0.10;0.10;;;;;;;14.20;100.00;94824.22;4324000;32;20209;-58
2023/05/10 01:51:46;;;;;;;0.13;0.13;;;;;;;14.12;100.00;94829.62;4343599;32;20218;-59
2023/05/10 01:54:13;;;;;;;0.00;0.00;;;;;;;14.03;100.00;94819.03;4342766;32;20208;-59
2023/05/10 01:56:40;;;;;;;0.30;0.30;;;;;;;14.01;100.00;94826.56;4343602;32;20211;-59
2023/05/10 01:59:12;;;;;;;0.20;0.20;;;;;;;14.06;100.00;94824.50;4350977;32;20185;-59
2023/05/10 02:01:40;;;;;;;0.10;0.10;;;;;;;14.22;100.00;94816.66;4346404;32;20245;-58
2023/05/10 02:04:07;;;;;;;0.00;0.00;;;;;;;14.11;100.00;94826.19;4323181;32;20239;-59
2023/05/10 02:06:34;;;;;;;0.07;0.07;;;;;;;14.01;100.00;94821.25;4328858;32;20193;-59
2023/05/10 02:09:01;;;;;;;0.20;0.20;;;;;;;13.98;100.00;94820.00;4339426;32;20190;-59
2023/05/10 02:11:28;;;;;;;0.30;0.30;;;;;;;14.11;100.00;94818.19;4341455;32;20189;-58
2023/05/10 02:13:55;;;;;;;0.00;0.00;;;;;;;14.23;100.00;94818.22;4326709;32;20194;-59
2023/05/10 02:16:25;;;;;;;0.20;0.20;;;;;;;14.28;100.00;94826.03;4339101;32;20201;-59
2023/05/10 02:18:52;;;;;;;0.10;0.10;;;;;;;14.17;100.00;94818.75;4344099;32;20203;-59
2023/05/10 02:21:18;;;;;;;0.00;0.00;;;;;;;14.09;100.00;94826.50;4333542;32;20197;-59
2023/05/10 02:23:45;;;;;;;0.00;0.00;;;;;;;14.09;100.00;94828.41;4334427;32;20250;-59
2023/05/10 02:26:11;;;;;;;0.13;0.13;;;;;;;14.25;100.00;94825.91;4325438;32;20225;-59
2023/05/10 02:28:38;;;;;;;0.00;0.00;;;;;;;14.07;100.00;94825.28;4342376;32;20225;-59
2023/05/10 02:31:05;;;;;;;0.10;0.10;;;;;;;14.07;100.00;94825.28;4345299;32;20255;-59
2023/05/10 02:33:32;;;;;;;0.00;0.00;;;;;;;14.05;100.00;94822.16;4347318;32;20197;-59
2023/05/10 02:35:58;;;;;;;0.10;0.10;;;;;;;14.09;100.00;94823.84;4348084;32;20189;-58
2023/05/10 02:38:25;;;;;;;0.00;0.00;;;;;;;14.06;100.00;94823.72;4346030;32;20260;-59
2023/05/10 02:40:52;;;;;;;0.37;0.37;;;;;;;13.99;100.00;94823.44;4326898;32;20208;-58
2023/05/10 02:43:18;;;;;;;0.20;0.10;;;;;;;14.06;100.00;94821.06;4340338;32;20216;-59
2023/05/10 02:45:47;;;;;;;0.10;0.10;;;;;;;14.10;100.00;94820.06;4332557;32;20202;-59
2023/05/10 02:48:15;;;;;;;0.00;0.00;;;;;;;14.13;100.00;94829.31;4344885;32;20194;-59
2023/05/10 02:50:44;;;;;;;0.07;0.07;;;;;;;14.06;100.00;94821.06;4342466;32;20217;-59
2023/05/10 02:53:15;;;;;;;0.10;0.10;;;;;;;13.94;100.00;94826.31;4330916;32;20247;-59
2023/05/10 02:55:43;;;;;;;0.10;0.10;;;;;;;13.89;100.00;94823.88;4343458;32;20252;-58
2023/05/10 02:58:09;;;;;;;0.20;0.20;;;;;;;13.86;100.00;94825.28;4328065;33;20208;-58
2023/05/10 03:00:36;;;;;;;0.20;0.20;;;;;;;13.94;100.00;94831.66;4336164;32;20238;-59
2023/05/10 03:03:01;;;;;;;0.00;0.00;;;;;;;13.97;100.00;94826.44;4338874;32;20239;-59
2023/05/10 03:05:27;;;;;;;0.00;0.00;;;;;;;14.01;100.00;94827.34;4343400;32;20201;-59
2023/05/10 03:07:53;;;;;;;0.00;0.00;;;;;;;14.15;100.00;94824.41;4335768;32;20223;-58
2023/05/10 03:10:20;;;;;;;1.70;0.43;;;;;;;13.84;100.00;94832.84;4360114;32;20238;-59
2023/05/10 03:13:07;;;;;;;0.43;0.13;;;;;;;14.00;100.00;94830.34;4361609;32;20215;-58
2023/05/10 03:16:07;;;;;;;0.20;0.20;;;;;;;14.01;100.00;94829.25;4355400;32;20228;-59
2023/05/10 03:18:41;;;;;;;0.03;0.03;;;;;;;13.79;100.00;94835.69;4333980;32;20193;-59
2023/05/10 03:21:12;;;;;;;0.17;0.17;;;;;;;13.88;100.00;94840.97;4341096;32;20286;-59
2023/05/10 03:23:42;;;;;;;0.33;0.33;;;;;;;13.92;100.00;94836.56;4343763;32;20200;-59
2023/05/10 03:26:08;;;;;;;0.00;0.00;;;;;;;13.92;100.00;94839.22;4359469;32;20197;-59
2023/05/10 03:28:35;;;;;;;0.10;0.10;;;;;;;13.85;100.00;94844.28;4355110;32;20204;-58
2023/05/10 03:31:02;;;;;;;0.00;0.00;;;;;;;13.92;100.00;94844.56;4339121;32;20224;-59
2023/05/10 03:33:27;;;;;;;0.00;0.00;;;;;;;13.91;100.00;94843.00;4359060;32;20207;-59
2023/05/10 03:35:53;;;;;;;0.10;0.10;;;;;;;13.87;100.00;94848.19;4349739;32;20189;-59
2023/05/10 03:38:18;;;;;;;0.00;0.00;;;;;;;13.81;100.00;94852.12;4352886;32;20310;-59
2023/05/10 03:40:43;;;;;;;0.33;0.17;;;;;;;13.79;100.00;94850.91;4350846;32;20182;-59
2023/05/10 03:43:08;;;;;;;0.00;0.00;;;;;;;13.77;100.00;94852.00;4360708;32;20180;-58
2023/05/10 03:45:34;;;;;;;0.13;0.13;;;;;;;13.85;100.00;94854.94;4346722;32;20218;-59
2023/05/10 03:47:59;;;;;;;0.00;0.00;;;;;;;13.83;100.00;94854.50;4357730;32;20401;-59
2023/05/10 03:50:26;;;;;;;0.87;0.40;;;;;;;13.73;100.00;94861.75;4342040;32;20198;-59
2023/05/10 03:52:52;;;;;;;0.20;0.20;;;;;;;13.81;100.00;94854.81;4344065;32;20228;-59
2023/05/10 03:55:17;;;;;;;0.30;0.20;;;;;;;13.67;100.00;94862.28;4355820;32;20204;-59
2023/05/10 03:57:42;;;;;;;0.00;0.00;;;;;;;13.67;100.00;94862.28;4358403;32;20207;-58
2023/05/10 04:00:09;;;;;;;0.13;0.07;;;;;;;13.63;100.00;94870.16;4343070;32;20236;-58
2023/05/10 04:02:34;;;;;;;0.00;0.00;;;;;;;13.69;100.00;94870.75;4360715;32;20296;-59
2023/05/10 04:05:00;;;;;;;0.00;0.00;;;;;;;13.68;100.00;94867.28;4354253;32;20232;-59
2023/05/10 04:07:25;;;;;;;0.00;0.00;;;;;;;13.79;100.00;94870.34;4348573;32;20283;-58
2023/05/10 04:09:51;;;;;;;0.00;0.00;;;;;;;13.80;100.00;94871.13;4341672;32;20245;-59
2023/05/10 04:12:16;;;;;;;0.00;0.00;;;;;;;13.69;100.00;94863.53;4355899;32;20212;-59
2023/05/10 04:14:41;;;;;;;0.10;0.10;;;;;;;13.71;100.00;94868.53;4339416;32;20193;-58
2023/05/10 04:17:07;;;;;;;0.00;0.00;;;;;;;13.80;100.00;94874.56;4336342;32;20193;-58
2023/05/10 04:19:32;;;;;;;0.00;0.00;;;;;;;13.73;100.00;94869.75;4353813;32;20232;-58
2023/05/10 04:21:58;;;;;;;0.00;0.00;;;;;;;13.72;100.00;94875.41;4357334;32;20193;-59
2023/05/10 04:24:24;;;;;;;0.00;0.00;;;;;;;13.74;100.00;94873.19;4334982;33;20198;-58
2023/05/10 04:26:49;;;;;;;0.00;0.00;;;;;;;13.70;100.00;94878.41;4357848;32;20338;-58
2023/05/10 04:29:14;;;;;;;0.00;0.00;;;;;;;13.61;100.00;94880.34;4336950;32;20185;-59
2023/05/10 04:31:41;;;;;;;0.00;0.00;;;;;;;13.62;100.00;94879.25;4345759;32;20224;-61
2023/05/10 04:34:06;;;;;;;0.00;0.00;;;;;;;13.57;100.00;94879.41;4343491;32;20193;-59
2023/05/10 04:36:36;;;;;;;0.00;0.00;;;;;;;13.68;100.00;94883.28;4341391;32;20241;-58
2023/05/10 04:39:03;;;;;;;0.20;0.20;;;;;;;13.71;100.00;94876.53;4340501;32;20200;-58
2023/05/10 04:41:28;;;;;;;0.27;0.27;;;;;;;13.72;100.00;94878.84;4343442;32;20200;-59
2023/05/10 04:43:54;;;;;;;0.03;0.03;;;;;;;13.70;100.00;94877.63;4342434;32;20244;-59
2023/05/10 04:46:19;;;;;;;0.10;0.10;;;;;;;13.62;100.00;94879.25;4363387;32;20225;-59
2023/05/10 04:48:45;;;;;;;0.00;0.00;;;;;;;13.65;100.00;94873.28;4338752;32;20185;-59
2023/05/10 04:51:10;;;;;;;0.10;0.10;;;;;;;13.61;100.00;94879.56;4347239;32;20229;-59
2023/05/10 04:53:35;;;;;;;0.30;0.30;;;;;;;13.70;100.00;94882.97;4361319;32;20245;-58
2023/05/10 04:56:01;;;;;;;0.00;0.00;;;;;;;13.70;100.00;94883.75;4347775;32;20189;-59
2023/05/10 04:58:26;;;;;;;0.10;0.10;;;;;;;13.70;100.00;94885.63;4363274;32;20186;-59
2023/05/10 05:00:51;;;;;;;0.10;0.10;;;;;;;13.75;100.00;94893.41;4347084;32;20192;-59
2023/05/10 05:03:16;;;;;;;0.07;0.07;;;;;;;13.67;100.00;94897.72;4355558;32;20201;-59
2023/05/10 05:05:43;;;;;;;0.00;0.00;;;;;;;13.49;100.00;94898.94;4336138;32;20177;-59
2023/05/10 05:08:09;;;;;;;0.20;0.20;;;;;;;13.50;100.00;94900.50;4342212;32;20192;-59
2023/05/10 05:10:34;;;;;;;0.00;0.00;;;;;;;13.49;100.00;94898.94;4355899;32;20201;-58
2023/05/10 05:13:00;;;;;;;0.00;0.00;;;;;;;13.38;100.00;94901.16;4347937;32;20223;-59
2023/05/10 05:15:25;;;;;;;0.00;0.00;;;;;;;13.34;100.00;94920.75;4358403;32;20208;-59
2023/05/10 05:17:51;;;;;;;0.10;0.10;;;;;;;13.33;100.00;94913.88;4347385;32;20216;-59
2023/05/10 05:20:17;;;;;;;0.00;0.00;;;;;;;13.18;100.00;94922.41;4348299;32;20272;-59
2023/05/10 05:22:42;;;;;;;0.40;0.30;;;;;;;13.20;100.00;94909.53;4356156;32;20193;-58
2023/05/10 05:25:08;;;;;;;0.10;0.10;;;;;;;13.20;100.00;94922.88;4356786;32;20232;-59
2023/05/10 05:27:33;;;;;;;0.10;0.10;;;;;;;13.27;100.00;94928.50;4352694;32;20211;-60
2023/05/10 05:29:58;;;;;;;0.00;0.00;;;;;;;13.42;100.00;94925.28;4355709;32;20220;-58
2023/05/10 05:32:25;;;;;;;0.00;0.00;;;;;;;13.25;100.00;94926.13;4355929;32;20188;-59
2023/05/10 05:34:51;;;;;;;0.13;0.10;;;;;;;13.22;100.00;94928.66;4353569;32;20250;-59
2023/05/10 05:37:21;;;;;;;0.23;0.00;;;;;;;13.25;100.00;94933.34;4359195;32;20197;-59
2023/05/10 05:39:46;;;;;;;0.43;0.17;;;;;;;13.26;100.00;94938.34;4358750;32;20235;-58
2023/05/10 05:42:13;;;;;;;0.00;0.00;;;;;;;13.29;100.00;94937.72;4336752;32;20213;-58
2023/05/10 05:44:39;;;;;;;0.10;0.10;;;;;;;13.29;100.00;94945.72;4346630;32;20248;-59
2023/05/10 05:47:05;;;;;;;0.03;0.03;;;;;;;13.27;100.00;94952.47;4343699;32;20193;-58
2023/05/10 05:49:30;;;;;;;0.00;0.00;;;;;;;13.26;100.00;94950.91;4340808;32;20247;-61
2023/05/10 05:52:00;;;;;;;8.27;1.77;;;;;;;13.01;100.00;94963.16;4349962;32;20208;-49
2023/05/10 05:54:25;;;;;;;0.47;0.47;;;;;;;14.58;100.00;94952.16;4344707;32;20273;-50
2023/05/10 05:56:54;;;;;;;0.30;0.30;;;;;;;14.92;100.00;94940.37;4355998;32;20189;-52
2023/05/10 05:59:20;;;;;;;0.77;0.30;;;;;;;15.28;100.00;94953.03;4344142;32;20227;-48
2023/05/10 06:01:45;;;;;;;0.13;0.10;;;;;;;15.73;100.00;94958.34;4346164;32;20257;-50
2023/05/10 06:04:11;;;;;;;0.13;0.13;;;;;;;16.08;99.10;94953.31;4362291;32;20209;-46
2023/05/10 06:06:36;;;;;;;0.10;0.10;;;;;;;16.33;96.05;94953.25;4340841;32;20199;-47
2023/05/10 06:09:02;;;;;;;0.10;0.10;;;;;;;16.44;94.51;94959.69;4341731;32;20201;-54
2023/05/10 06:11:27;;;;;;;0.20;0.20;;;;;;;16.53;93.80;94964.94;4348602;32;20184;-49
2023/05/10 06:13:53;;;;;;;1.70;0.23;;;;;;;16.44;92.87;94965.81;4362304;32;20207;-48
2023/05/10 06:16:18;;;;;;;0.07;0.07;;;;;;;16.61;92.60;94978.19;4342270;32;20213;-47
2023/05/10 06:18:43;;;;;;;0.10;0.10;;;;;;;16.69;91.27;94971.16;4349173;32;20279;-46
2023/05/10 06:21:09;;;;;;;0.17;0.17;;;;;;;16.81;90.89;94984.50;4346269;32;20203;-49
2023/05/10 06:23:35;;;;;;;3.50;1.23;;;;;;;17.06;93.65;94985.94;4354868;32;20239;-49
2023/05/10 06:26:00;;;;;;;0.60;0.60;;;;;;;17.26;96.49;94994.13;4345028;32;20217;-46
2023/05/10 06:28:26;;;;;;;0.20;0.20;;;;;;;17.45;94.44;94995.03;4350328;32;20258;-59
2023/05/10 06:30:51;;;;;;;0.10;0.10;;;;;;;16.61;89.51;94993.47;4357223;32;20208;-59
2023/05/10 06:33:17;;;;;;;0.00;0.00;;;;;;;15.98;92.38;94998.47;4354223;32;20197;-59
2023/05/10 06:35:42;;;;;;;0.03;0.03;;;;;;;15.05;97.31;95002.63;4358250;32;20247;-59
2023/05/10 06:38:07;;;;;;;0.10;0.10;;;;;;;14.56;100.00;95006.97;4330567;32;20194;-58
2023/05/10 06:40:33;;;;;;;0.00;0.00;;;;;;;14.47;100.00;95006.28;4341889;32;20218;-59
2023/05/10 06:42:58;;;;;;;0.20;0.20;;;;;;;14.14;100.00;95001.56;4352672;32;20235;-59
2023/05/10 06:45:23;;;;;;;0.00;0.00;;;;;;;13.98;100.00;95003.25;4346625;32;20216;-58
2023/05/10 06:47:49;;;;;;;0.00;0.00;;;;;;;14.04;100.00;95001.97;4345437;32;20288;-59
2023/05/10 06:50:14;;;;;;;0.87;0.20;;;;;;;14.10;100.00;95006.03;4354479;32;20212;-58
2023/05/10 06:52:40;;;;;;;0.30;0.30;;;;;;;14.03;100.00;95008.41;4359120;32;20197;-58
2023/05/10 06:55:10;;;;;;;0.37;0.37;;;;;;;13.94;100.00;94999.66;4342070;32;20233;-58
2023/05/10 06:57:35;;;;;;;0.10;0.10;;;;;;;14.01;100.00;95010.59;4356485;32;20193;-59
2023/05/10 07:00:01;;;;;;;0.30;0.23;;;;;;;13.87;100.00;95007.41;4348514;32;20224;-59
2023/05/10 07:02:26;;;;;;;0.10;0.10;;;;;;;13.71;100.00;94994.63;4343158;32;20201;-59
2023/05/10 07:04:52;;;;;;;0.10;0.10;;;;;;;13.96;100.00;95008.13;4352385;32;20197;-59
2023/05/10 07:07:18;;;;;;;1.17;0.53;;;;;;;13.92;100.00;95015.22;4354944;32;20193;-59
2023/05/10 07:09:43;;;;;;;0.10;0.10;;;;;;;13.80;100.00;95013.22;4343396;32;20212;-59
2023/05/10 07:12:08;;;;;;;0.37;0.37;;;;;;;13.81;100.00;95014.00;4360631;32;20241;-58
2023/05/10 07:14:34;;;;;;;0.13;0.13;;;;;;;13.57;100.00;95015.34;4360155;32;20233;-59
2023/05/10 07:16:59;;;;;;;0.17;0.17;;;;;;;13.66;100.00;95013.44;4359642;32;20203;-61
2023/05/10 07:19:24;;;;;;;2.33;0.47;;;;;;;13.75;100.00;95011.50;4356917;32;20265;-58
2023/05/10 07:21:50;;;;;;;0.17;0.17;;;;;;;13.75;100.00;95011.50;4337759;32;20250;-58
2023/05/10 07:24:16;;;;;;;0.20;0.20;;;;;;;13.71;100.00;95021.28;4355647;32;20197;-58
2023/05/10 07:26:41;;;;;;;0.13;0.13;;;;;;;13.79;100.00;95026.88;4340949;32;20279;-59
2023/05/10 07:29:06;;;;;;;0.83;0.20;;;;;;;13.92;100.00;95020.56;4348406;32;20208;-59
2023/05/10 07:31:32;;;;;;;0.20;0.20;;;;;;;14.00;100.00;95022.38;4356482;32;20189;-58
2023/05/10 07:33:57;;;;;;;0.73;0.40;;;;;;;14.21;100.00;95023.19;4345395;32;20207;-59
2023/05/10 07:36:22;;;;;;;0.20;0.20;;;;;;;14.25;100.00;95029.47;4344726;32;20189;-59
2023/05/10 07:38:49;;;;;;;0.10;0.10;;;;;;;14.38;100.00;95022.31;4340746;32;20201;-58
2023/05/10 07:41:14;;;;;;;0.10;0.10;;;;;;;14.37;100.00;95018.84;4336627;32;20186;-58
2023/05/10 07:43:41;;;;;;;0.10;0.10;;;;;;;14.42;100.00;95024.03;4344990;32;20197;-58
2023/05/10 07:46:10;;;;;;;1.13;0.37;;;;;;;14.42;100.00;95018.69;4345587;32;20249;-58
2023/05/10 07:48:36;;;;;;;0.90;0.30;;;;;;;14.60;100.00;95018.56;4346111;32;20252;-59
2023/05/10 07:51:02;;;;;;;3.10;0.47;;;;;;;14.66;100.00;95023.41;4352121;32;20230;-58
2023/05/10 07:53:27;;;;;;;0.40;0.40;;;;;;;14.78;100.00;95025.34;4352609;32;20193;-59
2023/05/10 07:55:58;;;;;;;0.10;0.10;;;;;;;14.79;100.00;95027.69;4345318;32;20231;-60
2023/05/10 07:58:25;;;;;;;0.10;0.10;;;;;;;14.62;100.00;95029.72;4352712;32;20189;-58
2023/05/10 08:00:50;;;;;;;0.37;0.37;;;;;;;14.71;100.00;95041.13;4342745;32;20330;-58
2023/05/10 08:03:15;;;;;;;0.20;0.20;;;;;;;14.84;97.29;95032.06;4353962;32;20193;-58
2023/05/10 08:05:41;;;;;;;0.80;0.80;;;;;;;14.99;96.87;95030.66;4351876;32;20244;-58
2023/05/10 08:08:06;;;;;;;0.10;0.10;;;;;;;15.06;95.79;95022.91;4354681;32;20227;-58
2023/05/10 08:10:32;;;;;;;0.20;0.20;;;;;;;15.07;96.22;95017.22;4347148;32;20196;-59
2023/05/10 08:12:58;;;;;;;0.60;0.60;;;;;;;15.07;95.73;95035.94;4351698;32;20201;-58
2023/05/10 08:15:24;;;;;;;0.10;0.10;;;;;;;15.16;93.10;95043.88;4347638;32;20221;-58
2023/05/10 08:17:50;;;;;;;7.63;0.40;;;;;;;15.10;89.95;95043.31;4340257;32;20283;-59
2023/05/10 08:20:18;;;;;;;2.37;0.40;;;;;;;15.16;92.34;95035.88;4345381;32;20193;-59
2023/05/10 08:22:44;;;;;;;0.03;0.03;;;;;;;15.19;92.85;95042.41;4346107;32;20189;-59
2023/05/10 08:25:10;;;;;;;0.10;0.10;;;;;;;15.37;92.06;95043.84;4354262;32;20363;-59
2023/05/10 08:27:35;;;;;;;0.33;0.10;;;;;;;15.42;90.24;95038.25;4362104;32;20189;-59
2023/05/10 08:30:00;;;;;;;0.10;0.10;;;;;;;15.29;88.75;95039.34;4355796;32;20212;-59
2023/05/10 08:32:25;;;;;;;0.10;0.10;;;;;;;15.28;88.61;95043.12;4343517;32;20253;-60
2023/05/10 08:34:51;;;;;;;0.30;0.30;;;;;;;15.31;88.46;95043.25;4348948;32;20184;-59
2023/05/10 08:37:16;;;;;;;1.23;0.30;;;;;;;15.21;87.76;95038.31;4349866;32;20197;-58
2023/05/10 08:39:43;;;;;;;0.03;0.03;;;;;;;15.09;88.19;95038.28;4359220;32;20181;-59
2023/05/10 08:42:09;;;;;;;0.10;0.10;;;;;;;15.11;86.85;95044.88;4336262;32;20212;-59
2023/05/10 08:44:36;;;;;;;0.10;0.10;;;;;;;15.12;88.39;95037.63;4360115;32;20193;-58
2023/05/10 08:47:06;;;;;;;0.10;0.10;;;;;;;14.93;89.55;95048.03;4363617;32;20180;-58
2023/05/10 08:49:32;;;;;;;4.40;0.60;;;;;;;14.95;88.97;95041.25;4362925;32;20246;-59
2023/05/10 08:52:03;;;;;;;0.10;0.10;;;;;;;14.98;90.04;95040.56;4346527;32;20199;-59
2023/05/10 08:54:28;;;;;;;0.30;0.30;;;;;;;15.04;90.59;95041.16;4335222;32;20248;-59
2023/05/10 08:56:53;;;;;;;0.00;0.00;;;;;;;14.91;89.38;95051.00;4344010;32;20205;-59
2023/05/10 08:59:19;;;;;;;0.30;0.30;;;;;;;14.99;89.29;95038.66;4338823;32;20291;-59
2023/05/10 09:01:48;;;;;;;0.30;0.30;;;;;;;15.01;90.16;95055.16;4327762;32;20201;-59
2023/05/10 09:04:13;;;;;;;0.13;0.13;;;;;;;14.95;90.99;95053.81;4326409;32;20190;-59
2023/05/10 09:06:39;;;;;;;0.23;0.23;;;;;;;14.87;90.12;95047.44;4340885;32;20212;-59
2023/05/10 09:09:04;;;;;;;0.10;0.10;;;;;;;14.90;91.95;95051.34;4349471;32;20227;-59
2023/05/10 09:11:30;;;;;;;2.40;0.30;;;;;;;14.95;90.62;95049.25;4340295;32;20193;-61
2023/05/10 09:13:55;;;;;;;0.20;0.20;;;;;;;14.95;90.39;95043.12;4344397;32;20236;-59
2023/05/10 09:16:22;;;;;;;0.60;0.57;;;;;;;14.94;91.28;95039.69;4355186;32;20252;-59
2023/05/10 09:18:47;;;;;;;0.07;0.07;;;;;;;15.15;92.08;95044.22;4355156;32;20186;-59
2023/05/10 09:21:13;;;;;;;1.90;0.30;;;;;;;15.37;87.48;95052.66;4360957;32;20189;-59
2023/05/10 09:23:42;;;;;;;0.13;0.13;;;;;;;15.35;87.30;95051.41;4356576;32;20363;-59
2023/05/10 09:26:08;;;;;;;0.00;0.00;;;;;;;15.35;86.75;95038.03;4341826;32;20180;-59
2023/05/10 09:28:34;;;;;;;0.00;0.00;;;;;;;15.52;86.68;95037.06;4334475;32;20216;-59
2023/05/10 09:30:59;;;;;;;0.53;0.43;;;;;;;15.53;86.25;95044.00;4355765;32;20205;-61
2023/05/10 09:33:25;;;;;;;0.20;0.20;;;;;;;15.51;86.64;95044.31;4345061;32;20227;-59
2023/05/10 09:35:53;;;;;;;0.10;0.10;;;;;;;15.62;87.11;95052.72;4357689;32;20338;-59
2023/05/10 09:38:19;;;;;;;0.10;0.10;;;;;;;15.43;86.24;95035.25;4326911;32;24367;-59
2023/05/10 09:40:54;;;;;;;0.10;0.10;;;;;;;15.60;87.51;95045.00;4355660;32;20243;-59
2023/05/10 09:43:20;;;;;;;2.27;0.60;;;;;;;15.50;87.30;95034.72;4342641;32;20389;-59
2023/05/10 09:45:48;;;;;;;0.30;0.30;;;;;;;15.44;87.65;95041.38;4351867;32;20189;-58
2023/05/10 09:48:14;;;;;;;0.43;0.43;;;;;;;15.51;86.67;95038.97;4349717;32;20194;-59
2023/05/10 09:50:40;;;;;;;0.00;0.00;;;;;;;15.64;86.42;95039.78;4331767;32;20229;-59
2023/05/10 09:53:06;;;;;;;0.37;0.37;;;;;;;15.85;85.29;95042.38;4347870;32;20197;-59
2023/05/10 09:55:41;;;;;;;1.60;0.30;;;;;;;16.01;84.72;95038.72;4336738;32;20239;-59
2023/05/10 09:58:10;;;;;;;0.10;0.10;;;;;;;16.08;83.82;95038.16;4343052;32;20192;-59
2023/05/10 10:00:47;;;;;;;0.07;0.07;;;;;;;16.10;84.57;95042.06;4355745;32;20202;-59
2023/05/10 10:03:20;;;;;;;0.13;0.13;;;;;;;16.20;82.93;95035.50;4357230;32;20203;-59
2023/05/10 10:05:47;;;;;;;0.03;0.03;;;;;;;16.26;83.01;95034.13;4353573;32;20301;-59
2023/05/10 10:08:13;;;;;;;1.23;0.40;;;;;;;16.19;83.11;95023.22;4339873;32;20228;-59
2023/05/10 10:10:47;;;;;;;0.27;0.27;;;;;;;16.20;83.01;95034.72;4352866;32;20246;-59
2023/05/10 10:13:13;;;;;;;0.20;0.20;;;;;;;16.11;83.64;95032.91;4354220;32;20300;-59
2023/05/10 10:15:39;;;;;;;0.17;0.17;;;;;;;16.06;83.16;95032.34;4354386;32;20192;-58
2023/05/10 10:18:05;;;;;;;0.00;0.00;;;;;;;16.16;82.58;95029.25;4357776;32;20204;-59
2023/05/10 10:20:31;;;;;;;0.00;0.00;;;;;;;16.06;82.29;95035.03;4343923;32;20200;-59
2023/05/10 10:22:56;;;;;;;0.20;0.20;;;;;;;16.19;82.48;95023.22;4346624;32;20208;-59
2023/05/10 10:25:22;;;;;;;5.40;0.60;;;;;;;16.08;83.98;95036.25;4339493;32;20201;-59
2023/05/10 10:27:53;;;;;;;0.20;0.20;;;;;;;16.23;82.58;95026.78;4337274;32;20236;-60
2023/05/10 10:30:37;;;;;;;0.10;0.10;;;;;;;16.31;81.54;95033.91;4356688;32;20193;-59
2023/05/10 10:33:33;;;;;;;0.30;0.30;;;;;;;16.23;80.63;95034.03;4344209;32;20282;-59
2023/05/10 10:36:01;;;;;;;0.53;0.53;;;;;;;16.09;82.26;95031.69;4347432;32;20239;-59
2023/05/10 10:38:37;;;;;;;0.30;0.30;;;;;;;15.90;85.90;95032.25;4358641;32;20215;-59
2023/05/10 10:41:10;;;;;;;1.47;0.50;;;;;;;16.03;89.00;95031.13;4339923;32;20200;-59
2023/05/10 10:43:35;;;;;;;9.00;8.07;;;;;;;16.17;88.38;95025.47;4343788;32;20208;-59
2023/05/10 10:46:10;;;;;;;1.27;1.17;;;;;;;16.15;86.84;95022.34;4341733;32;20197;-59
2023/05/10 10:48:35;;;;;;;0.10;0.10;;;;;;;16.34;86.26;95019.84;4338733;32;20197;-59
2023/05/10 10:51:01;;;;;;;0.20;0.20;;;;;;;16.49;86.50;95013.81;4354113;32;20232;-59
2023/05/10 10:53:30;;;;;;;0.93;0.73;;;;;;;16.41;83.38;95016.63;4342255;32;20253;-59
2023/05/10 10:56:09;;;;;;;0.00;0.00;;;;;;;16.27;83.96;95014.28;4330944;32;20233;-58
2023/05/10 10:58:37;;;;;;;0.80;0.30;;;;;;;16.24;83.19;95008.81;4342807;32;20197;-59
2023/05/10 11:01:11;;;;;;;0.10;0.10;;;;;;;16.34;83.37;95014.50;4343846;32;20254;-59
2023/05/10 11:03:36;;;;;;;0.40;0.40;;;;;;;16.35;81.83;95018.75;4345276;32;20223;-59
2023/05/10 11:06:02;;;;;;;0.30;0.30;;;;;;;16.22;77.22;95011.81;4359308;32;20225;-59
2023/05/10 11:08:32;;;;;;;0.20;0.20;;;;;;;16.17;78.27;95022.78;4351038;32;20193;-60
2023/05/10 11:11:00;;;;;;;0.20;0.20;;;;;;;16.11;81.57;95019.53;4356827;32;20235;-59
2023/05/10 11:13:39;;;;;;;0.20;0.20;;;;;;;15.92;84.98;95023.91;4341605;32;20213;-59
2023/05/10 11:16:10;;;;;;;0.30;0.30;;;;;;;15.71;88.02;95018.63;4360186;32;20197;-58
2023/05/10 11:18:36;;;;;;;0.00;0.00;;;;;;;15.40;88.90;95021.78;4351617;32;20197;-59
2023/05/10 11:21:04;;;;;;;0.20;0.20;;;;;;;15.27;91.52;95025.53;4361023;32;20343;-58
2023/05/10 11:23:47;;;;;;;0.30;0.30;;;;;;;15.04;92.82;95031.25;4347427;32;20193;-62
2023/05/10 11:26:13;;;;;;;0.40;0.40;;;;;;;14.92;95.67;95028.53;4355918;32;20258;-59
2023/05/10 11:28:43;;;;;;;1.03;0.93;;;;;;;14.83;97.30;95027.03;4334538;32;20197;-59
2023/05/10 11:31:08;;;;;;;0.13;0.13;;;;;;;14.91;100.00;95028.88;4358926;32;20185;-59